Time;durP1;ratioP1;P1;durP2;ratioP2;P2;SDS_P1;SDS_P2;PMS_P1;PMS_P2;Temp;Humidity;BMP_temperature;BMP_pressure;BME280_temperature;BME280_humidity;BME280_pressure;Samples;Min_cycle;Max_cycle;Signal;HPM_P1;HPM_P2
2022/09/08 00:02:16;;;;;;;10.18;8.45;;;17.90;99.90;;;;;;5116259;27;20047;-63
2022/09/08 00:04:42;;;;;;;11.68;8.77;;;17.90;99.90;;;;;;5135717;27;20035;-62
2022/09/08 00:07:08;;;;;;;10.63;8.25;;;17.90;99.90;;;;;;5136466;27;20057;-62
2022/09/08 00:09:35;;;;;;;11.85;7.90;;;17.80;99.90;;;;;;5101758;27;20039;-65
2022/09/08 00:12:03;;;;;;;10.75;9.65;;;17.80;99.90;;;;;;5134093;27;20399;-63
2022/09/08 00:14:32;;;;;;;12.02;9.70;;;17.80;99.90;;;;;;5117017;27;20051;-63
2022/09/08 00:16:59;;;;;;;15.10;9.88;;;17.80;99.90;;;;;;5125584;27;20047;-64
2022/09/08 00:19:26;;;;;;;11.43;10.27;;;17.80;99.90;;;;;;5134243;27;20049;-63
2022/09/08 00:21:52;;;;;;;11.15;9.93;;;17.70;99.90;;;;;;5139819;27;20039;-63
2022/09/08 00:24:18;;;;;;;13.88;11.25;;;17.70;99.90;;;;;;5118731;27;20054;-63
2022/09/08 00:26:44;;;;;;;16.70;11.98;;;17.70;99.90;;;;;;5139524;27;20042;-63
2022/09/08 00:29:10;;;;;;;14.25;12.55;;;17.60;99.90;;;;;;5134679;27;20121;-62
2022/09/08 00:31:40;;;;;;;15.00;12.75;;;17.60;99.90;;;;;;5124581;27;20045;-63
2022/09/08 00:34:06;;;;;;;15.50;13.90;;;17.60;99.90;;;;;;5118873;27;20054;-63
2022/09/08 00:36:33;;;;;;;17.25;14.23;;;17.60;99.90;;;;;;5137830;27;20415;-64
2022/09/08 00:39:00;;;;;;;16.63;14.15;;;17.60;99.90;;;;;;5117717;27;20054;-63
2022/09/08 00:41:27;;;;;;;18.83;14.77;;;17.50;99.90;;;;;;5134964;27;20053;-63
2022/09/08 00:43:58;;;;;;;18.52;15.63;;;17.50;99.90;;;;;;5138586;27;20038;-66
2022/09/08 00:46:28;;;;;;;19.05;16.27;;;17.50;99.90;;;;;;5148471;27;20035;-63
2022/09/08 00:49:16;;;;;;;17.38;15.40;;;17.50;99.90;;;;;;5137262;27;20043;-63
2022/09/08 00:51:49;;;;;;;20.05;16.90;;;17.50;99.90;;;;;;5116470;27;20488;-62
2022/09/08 00:54:17;;;;;;;17.60;15.80;;;17.50;99.90;;;;;;5148442;27;20054;-63
2022/09/08 00:56:45;;;;;;;19.73;17.58;;;17.50;99.90;;;;;;5143757;27;20392;-64
2022/09/08 00:59:15;;;;;;;23.92;17.95;;;17.40;99.90;;;;;;5135667;27;20051;-62
2022/09/08 01:01:41;;;;;;;20.05;17.98;;;17.40;99.90;;;;;;5137124;27;20077;-63
2022/09/08 01:04:08;;;;;;;21.88;18.48;;;17.40;99.90;;;;;;5132824;27;20119;-63
2022/09/08 01:12:44;;;;;;;22.80;20.35;;;17.30;99.90;;;;;;5115557;27;20174;-63
2022/09/08 01:15:18;;;;;;;23.55;21.15;;;17.30;99.90;;;;;;5118471;27;20377;-63
2022/09/08 01:17:44;;;;;;;;;;;17.30;99.90;;;;;;5145927;27;20116;-63
2022/09/08 01:20:11;;;;;;;24.48;20.73;;;17.30;99.90;;;;;;5141175;27;19950;-62
2022/09/08 01:22:52;;;;;;;23.02;20.65;;;17.30;99.90;;;;;;5115818;27;20054;-63
2022/09/08 01:25:31;;;;;;;24.00;21.42;;;17.20;99.90;;;;;;5121618;27;20055;-63
2022/09/08 01:28:09;;;;;;;24.00;21.63;;;17.30;99.90;;;;;;5134334;27;20381;-63
2022/09/08 01:30:35;;;;;;;24.42;21.83;;;17.20;99.90;;;;;;5138527;27;20131;-63
2022/09/08 01:33:07;;;;;;;26.23;22.35;;;17.20;99.90;;;;;;5113470;27;20059;-64
2022/09/08 01:35:38;;;;;;;25.95;23.17;;;17.20;99.90;;;;;;5124547;27;20057;-63
2022/09/08 01:38:07;;;;;;;26.02;23.33;;;17.20;99.90;;;;;;5123009;27;20057;-63
2022/09/08 01:40:33;;;;;;;27.15;24.35;;;17.20;99.90;;;;;;5111706;27;20042;-63
2022/09/08 01:42:59;;;;;;;27.00;24.13;;;17.20;99.90;;;;;;5143558;27;20122;-62
2022/09/08 01:45:27;;;;;;;29.75;24.95;;;17.20;99.90;;;;;;5149367;27;20076;-62
2022/09/08 01:47:53;;;;;;;27.98;24.70;;;17.20;99.90;;;;;;5131717;27;20053;-62
2022/09/08 01:50:19;;;;;;;28.35;25.40;;;17.20;99.90;;;;;;5144075;27;20095;-63
2022/09/08 01:52:45;;;;;;;29.00;25.88;;;17.20;99.90;;;;;;5142881;27;20118;-66
2022/09/08 01:55:11;;;;;;;30.25;27.02;;;17.20;99.90;;;;;;5132930;27;20127;-63
2022/09/08 01:57:37;;;;;;;28.90;25.83;;;17.20;99.90;;;;;;5141062;27;20109;-63
2022/09/08 02:00:05;;;;;;;29.25;26.25;;;17.20;99.90;;;;;;5134993;27;20035;-64
2022/09/08 02:02:31;;;;;;;30.13;26.92;;;17.20;99.90;;;;;;5140879;27;20099;-63
2022/09/08 02:04:57;;;;;;;31.55;28.25;;;17.20;99.90;;;;;;5145272;27;20491;-64
2022/09/08 02:07:23;;;;;;;31.42;27.83;;;17.20;99.90;;;;;;5127829;27;20344;-63
2022/09/08 02:09:48;;;;;;;31.80;28.38;;;17.30;99.90;;;;;;5150642;27;20078;-63
2022/09/08 02:12:14;;;;;;;32.95;28.30;;;17.30;99.90;;;;;;5121905;27;20374;-63
2022/09/08 02:14:40;;;;;;;33.30;29.80;;;17.20;99.90;;;;;;5145834;27;20050;-63
2022/09/08 02:17:06;;;;;;;30.95;27.75;;;17.30;99.90;;;;;;5138110;27;20087;-63
2022/09/08 02:19:31;;;;;;;32.15;28.80;;;17.30;99.90;;;;;;5150724;27;20381;-63
2022/09/08 02:21:57;;;;;;;32.67;29.00;;;17.40;99.90;;;;;;5133288;27;20043;-63
2022/09/08 02:24:23;;;;;;;31.27;27.88;;;17.30;99.90;;;;;;5137354;27;20074;-62
2022/09/08 02:26:49;;;;;;;33.28;29.80;;;17.30;99.90;;;;;;5142205;27;20039;-62
2022/09/08 02:29:15;;;;;;;33.90;30.27;;;17.30;99.90;;;;;;5115148;27;20110;-63
2022/09/08 02:31:41;;;;;;;32.88;29.35;;;17.30;99.90;;;;;;5122112;27;20062;-62
2022/09/08 02:34:08;;;;;;;33.70;30.20;;;17.40;99.90;;;;;;5139788;27;20043;-67
2022/09/08 02:36:34;;;;;;;36.30;31.70;;;17.30;99.90;;;;;;5139919;27;20486;-63
2022/09/08 02:38:59;;;;;;;33.92;30.17;;;17.30;99.90;;;;;;5142354;27;20119;-62
2022/09/08 02:41:27;;;;;;;34.75;29.63;;;17.30;99.90;;;;;;5128900;27;20046;-63
2022/09/08 02:43:53;;;;;;;34.25;30.73;;;17.30;99.90;;;;;;5146289;27;20074;-63
2022/09/08 02:46:19;;;;;;;35.35;30.88;;;17.30;99.90;;;;;;5100528;27;20055;-63
2022/09/08 02:48:45;;;;;;;33.83;30.33;;;17.30;99.90;;;;;;5129062;27;20336;-62
2022/09/08 02:51:14;;;;;;;34.65;30.38;;;17.30;99.90;;;;;;5152270;27;20043;-63
2022/09/08 02:53:41;;;;;;;36.25;31.88;;;17.30;99.90;;;;;;5151874;27;20171;-64
2022/09/08 02:56:07;;;;;;;36.47;31.00;;;17.30;99.90;;;;;;5130597;27;20537;-62
2022/09/08 02:58:34;;;;;;;34.33;30.45;;;17.30;99.90;;;;;;5149501;27;20068;-62
2022/09/08 03:00:59;;;;;;;35.40;31.70;;;17.30;99.90;;;;;;5150971;27;20042;-63
2022/09/08 03:03:25;;;;;;;35.58;31.88;;;17.30;99.90;;;;;;5151392;27;20038;-63
2022/09/08 03:05:52;;;;;;;36.38;32.47;;;17.30;99.90;;;;;;5151937;27;20046;-63
2022/09/08 03:08:19;;;;;;;33.10;29.60;;;17.30;99.90;;;;;;5140504;27;20039;-64
2022/09/08 03:10:44;;;;;;;35.55;31.73;;;17.30;99.90;;;;;;5120595;27;20086;-63
2022/09/08 03:13:11;;;;;;;36.03;31.23;;;17.30;99.90;;;;;;5137856;27;20110;-64
2022/09/08 03:15:37;;;;;;;36.58;32.35;;;17.30;99.90;;;;;;5139075;27;20122;-62
2022/09/08 03:18:04;;;;;;;38.08;33.90;;;17.30;99.90;;;;;;5118103;27;20368;-63
2022/09/08 03:20:31;;;;;;;38.60;34.42;;;17.30;99.90;;;;;;5135229;27;20433;-63
2022/09/08 03:22:58;;;;;;;37.05;33.15;;;17.30;99.90;;;;;;5142562;27;20039;-63
2022/09/08 03:25:24;;;;;;;37.65;33.67;;;17.30;99.90;;;;;;5127656;27;20051;-62
2022/09/08 03:27:50;;;;;;;37.58;33.58;;;17.30;99.90;;;;;;5140436;27;20053;-63
2022/09/08 03:30:17;;;;;;;38.50;34.40;;;17.30;99.90;;;;;;5134838;27;20047;-62
2022/09/08 03:32:45;;;;;;;39.65;35.40;;;17.30;99.90;;;;;;5136561;27;20051;-64
2022/09/08 03:35:13;;;;;;;39.80;35.45;;;17.30;99.90;;;;;;5138872;27;20047;-63
2022/09/08 03:37:40;;;;;;;39.58;35.33;;;17.30;99.90;;;;;;5116281;27;20476;-62
2022/09/08 03:40:11;;;;;;;40.55;36.13;;;17.30;99.90;;;;;;5132503;27;20043;-63
2022/09/08 03:42:38;;;;;;;41.53;37.08;;;17.20;99.90;;;;;;5150752;27;20050;-63
2022/09/08 03:45:07;;;;;;;42.85;37.92;;;17.30;99.90;;;;;;5153781;27;20053;-63
2022/09/08 03:47:33;;;;;;;43.13;38.35;;;17.30;99.90;;;;;;5133770;27;20074;-63
2022/09/08 03:49:59;;;;;;;43.92;39.03;;;17.30;99.90;;;;;;5135632;27;20078;-63
2022/09/08 03:52:26;;;;;;;44.08;39.42;;;17.30;99.90;;;;;;5124406;27;20085;-63
2022/09/08 03:54:52;;;;;;;45.15;37.60;;;17.30;99.90;;;;;;5131307;27;20035;-64
2022/09/08 03:57:24;;;;;;;44.72;38.83;;;17.30;99.90;;;;;;5118961;27;20122;-67
2022/09/08 03:59:52;;;;;;;43.47;37.92;;;17.30;99.90;;;;;;5146325;27;20084;-62
2022/09/08 04:02:19;;;;;;;42.88;38.28;;;17.30;99.90;;;;;;5145335;27;20156;-62
2022/09/08 04:04:49;;;;;;;42.72;38.08;;;17.30;99.90;;;;;;5117302;27;20051;-63
2022/09/08 04:07:17;;;;;;;43.20;38.50;;;17.30;99.90;;;;;;5149967;27;20039;-63
2022/09/08 04:09:43;;;;;;;44.70;39.97;;;17.30;99.90;;;;;;5129345;27;20046;-63
2022/09/08 04:12:09;;;;;;;43.38;38.45;;;17.40;99.90;;;;;;5131255;27;20046;-64
2022/09/08 04:14:35;;;;;;;48.00;41.55;;;17.40;99.90;;;;;;5153051;27;20554;-63
2022/09/08 04:17:01;;;;;;;47.05;40.58;;;17.40;99.90;;;;;;5149828;27;20049;-62
2022/09/08 04:19:27;;;;;;;48.20;40.17;;;17.30;99.90;;;;;;5128765;27;20072;-62
2022/09/08 04:21:53;;;;;;;45.03;40.00;;;17.40;99.90;;;;;;5141112;27;20046;-63
2022/09/08 04:24:19;;;;;;;46.20;40.58;;;17.40;99.90;;;;;;5151342;27;20122;-62
2022/09/08 04:26:46;;;;;;;45.22;39.95;;;17.40;99.90;;;;;;5153795;27;20126;-61
2022/09/08 04:29:11;;;;;;;45.70;39.90;;;17.40;99.90;;;;;;5147581;27;20104;-62
2022/09/08 04:31:37;;;;;;;46.60;39.75;;;17.40;99.90;;;;;;5141341;27;20065;-62
2022/09/08 04:34:03;;;;;;;47.33;42.17;;;17.40;99.90;;;;;;5154315;27;20081;-61
2022/09/08 04:36:30;;;;;;;46.55;41.58;;;17.40;99.90;;;;;;5130703;27;20042;-63
2022/09/08 04:38:58;;;;;;;46.13;41.10;;;17.40;99.90;;;;;;5150771;27;20047;-62
2022/09/08 04:41:26;;;;;;;47.40;42.20;;;17.40;99.90;;;;;;5141734;27;20077;-62
2022/09/08 04:43:52;;;;;;;50.63;42.20;;;17.50;99.90;;;;;;5152057;27;20035;-62
2022/09/08 04:46:18;;;;;;;47.55;42.45;;;17.50;99.90;;;;;;5143658;27;20509;-63
2022/09/08 04:48:45;;;;;;;46.40;41.20;;;17.40;99.90;;;;;;5149620;27;20064;-63
2022/09/08 04:51:13;;;;;;;45.72;40.55;;;17.40;99.90;;;;;;5138857;27;20051;-62
2022/09/08 04:53:38;;;;;;;45.92;40.83;;;17.50;99.90;;;;;;5132470;27;20485;-63
2022/09/08 04:56:06;;;;;;;46.55;39.75;;;17.40;99.90;;;;;;5120536;27;20053;-62
2022/09/08 04:58:34;;;;;;;47.03;41.85;;;17.40;99.90;;;;;;5136268;27;20466;-63
2022/09/08 05:01:13;;;;;;;46.35;40.70;;;17.50;99.90;;;;;;5119229;27;20130;-62
2022/09/08 05:03:40;;;;;;;49.08;43.03;;;17.50;99.90;;;;;;5143197;27;20043;-63
2022/09/08 05:06:12;;;;;;;46.47;41.42;;;17.50;99.90;;;;;;5124758;27;20056;-62
2022/09/08 05:08:38;;;;;;;48.55;43.30;;;17.50;99.90;;;;;;5116689;27;20521;-62
2022/09/08 05:11:07;;;;;;;48.72;42.20;;;17.40;99.90;;;;;;5149211;27;20038;-63
2022/09/08 05:13:33;;;;;;;48.22;42.65;;;17.40;99.90;;;;;;5132974;27;20108;-62
2022/09/08 05:16:08;;;;;;;49.83;44.08;;;17.40;99.90;;;;;;5136761;27;20050;-62
2022/09/08 05:18:34;;;;;;;49.33;44.03;;;17.40;99.90;;;;;;5141955;27;20074;-62
2022/09/08 05:21:00;;;;;;;54.03;44.88;;;17.40;99.90;;;;;;5140036;27;20051;-62
2022/09/08 05:23:26;;;;;;;49.28;43.88;;;17.40;99.90;;;;;;5115521;27;20039;-62
2022/09/08 05:26:00;;;;;;;50.58;44.65;;;17.30;99.90;;;;;;5132371;27;20035;-62
2022/09/08 05:28:28;;;;;;;51.38;44.42;;;17.30;99.90;;;;;;5121764;27;20054;-62
2022/09/08 05:30:54;;;;;;;50.20;44.65;;;17.40;99.90;;;;;;5150777;27;20073;-63
2022/09/08 05:33:21;;;;;;;51.33;45.75;;;17.40;99.90;;;;;;5146677;27;20035;-60
2022/09/08 05:35:48;;;;;;;53.13;46.40;;;17.40;99.90;;;;;;5144683;27;20058;-62
2022/09/08 05:38:14;;;;;;;50.42;44.97;;;17.40;99.90;;;;;;5147254;27;20042;-62
2022/09/08 05:40:39;;;;;;;48.75;43.33;;;17.40;99.90;;;;;;5144627;27;20130;-63
2022/09/08 05:43:05;;;;;;;51.60;44.60;;;17.40;99.90;;;;;;5134047;27;20451;-63
2022/09/08 05:45:31;;;;;;;48.35;43.20;;;17.50;99.90;;;;;;5150324;27;20496;-63
2022/09/08 05:47:57;;;;;;;49.85;43.00;;;17.50;99.90;;;;;;5151356;27;20125;-64
2022/09/08 05:50:23;;;;;;;50.58;44.20;;;17.50;99.90;;;;;;5130540;27;20135;-62
2022/09/08 05:52:49;;;;;;;47.92;42.17;;;17.60;99.90;;;;;;5141880;27;20107;-62
2022/09/08 05:55:15;;;;;;;48.42;41.40;;;17.60;99.90;;;;;;5133922;27;20039;-61
2022/09/08 05:57:40;;;;;;;48.72;40.83;;;17.60;99.90;;;;;;5136894;27;20050;-61
2022/09/08 06:00:08;;;;;;;44.92;40.03;;;17.70;99.90;;;;;;5140275;27;20051;-63
2022/09/08 06:02:34;;;;;;;45.08;39.08;;;17.60;99.90;;;;;;5136205;27;20039;-62
2022/09/08 06:05:00;;;;;;;43.08;38.42;;;17.70;99.90;;;;;;5115654;27;20050;-63
2022/09/08 06:07:26;;;;;;;45.00;39.25;;;17.70;99.90;;;;;;5134724;27;20046;-61
2022/09/08 06:09:52;;;;;;;43.42;38.70;;;17.70;99.90;;;;;;5117765;27;20095;-63
2022/09/08 06:12:18;;;;;;;44.60;39.90;;;17.80;99.90;;;;;;5115354;27;20087;-63
2022/09/08 06:14:44;;;;;;;43.83;39.22;;;17.80;99.90;;;;;;5114102;27;20047;-63
2022/09/08 06:17:11;;;;;;;44.13;39.38;;;17.80;99.90;;;;;;5138425;27;20104;-61
2022/09/08 06:19:37;;;;;;;44.60;39.67;;;17.80;99.90;;;;;;5133801;27;20039;-68
2022/09/08 06:22:03;;;;;;;46.15;40.33;;;17.80;99.90;;;;;;5142791;27;20075;-63
2022/09/08 06:24:29;;;;;;;47.38;42.28;;;17.90;99.90;;;;;;5143848;27;20038;-63
2022/09/08 06:27:06;;;;;;;46.92;41.78;;;17.90;99.90;;;;;;5145153;27;20476;-63
2022/09/08 06:29:59;;;;;;;45.67;40.78;;;17.80;99.90;;;;;;5130946;27;20049;-63
2022/09/08 06:32:27;;;;;;;46.17;39.28;;;17.80;99.90;;;;;;5143920;27;20043;-62
2022/09/08 06:35:14;;;;;;;46.88;41.85;;;17.90;99.90;;;;;;5145627;27;20426;-62
2022/09/08 06:37:53;;;;;;;47.63;42.53;;;17.80;99.90;;;;;;5131510;27;20043;-65
2022/09/08 06:40:55;;;;;;;46.50;40.83;;;17.80;99.90;;;;;;5149127;27;20050;-64
2022/09/08 06:43:32;;;;;;;47.10;42.00;;;17.80;99.90;;;;;;5100052;28;20065;-63
2022/09/08 06:46:06;;;;;;;44.53;39.45;;;17.80;99.90;;;;;;5127914;27;20372;-64
2022/09/08 06:48:34;;;;;;;50.40;41.92;;;17.80;99.90;;;;;;5133001;27;20111;-63
2022/09/08 06:51:19;;;;;;;46.88;38.13;;;17.90;99.90;;;;;;5131159;27;20693;-62
2022/09/08 06:54:08;;;;;;;48.67;42.28;;;17.90;99.90;;;;;;5139891;27;20082;-63
2022/09/08 06:56:43;;;;;;;48.67;42.92;;;17.90;99.90;;;;;;5131555;27;20043;-63
2022/09/08 06:59:25;;;;;;;47.47;42.45;;;17.80;99.90;;;;;;5132342;27;20803;-62
2022/09/08 07:02:01;;;;;;;52.60;45.03;;;17.80;99.90;;;;;;5131298;27;20193;-63
2022/09/08 07:04:35;;;;;;;49.75;43.55;;;17.90;99.90;;;;;;5132461;27;20512;-62
2022/09/08 07:07:32;;;;;;;52.78;45.28;;;17.80;99.90;;;;;;5137033;27;20062;-61
2022/09/08 07:10:18;;;;;;;49.15;43.85;;;17.80;99.90;;;;;;5112521;27;20083;-62
2022/09/08 07:12:44;;;;;;;52.70;44.22;;;17.80;99.90;;;;;;5149086;27;20043;-66
2022/09/08 07:15:12;;;;;;;52.97;46.80;;;17.80;99.90;;;;;;5146316;27;20137;-62
2022/09/08 07:17:50;;;;;;;54.67;45.28;;;17.80;99.90;;;;;;5131746;27;20050;-62
2022/09/08 07:20:16;;;;;;;53.97;46.92;;;17.80;99.90;;;;;;5137410;27;20039;-62
2022/09/08 07:22:49;;;;;;;56.53;47.05;;;17.70;99.90;;;;;;5132098;27;20387;-62
2022/09/08 07:25:40;;;;;;;54.08;46.25;;;17.70;99.90;;;;;;5122071;27;20122;-62
2022/09/08 07:28:12;;;;;;;62.45;52.17;;;17.70;99.90;;;;;;5150011;27;20366;-62
2022/09/08 07:30:38;;;;;;;61.85;50.45;;;17.60;99.90;;;;;;5146379;27;20031;-63
2022/09/08 07:33:22;;;;;;;62.35;49.25;;;17.50;99.90;;;;;;5133126;27;20058;-62
2022/09/08 07:35:58;;;;;;;57.97;48.67;;;17.50;99.90;;;;;;5152214;27;20046;-63
2022/09/08 07:38:47;;;;;;;56.28;49.40;;;17.50;99.90;;;;;;5108243;27;20043;-61
2022/09/08 07:41:23;;;;;;;60.05;48.90;;;17.50;99.90;;;;;;5117550;27;20111;-59
2022/09/08 07:43:53;;;;;;;63.85;49.38;;;17.50;99.90;;;;;;5135533;27;20319;-62
2022/09/08 07:46:39;;;;;;;60.63;50.58;;;17.40;99.90;;;;;;5135819;27;20043;-59
2022/09/08 07:49:20;;;;;;;68.28;53.42;;;17.40;99.90;;;;;;5116791;27;20492;-59
2022/09/08 07:52:00;;;;;;;64.18;49.95;;;17.40;99.90;;;;;;5135545;27;20075;-59
2022/09/08 07:54:44;;;;;;;61.47;48.03;;;17.30;99.90;;;;;;5135461;27;20434;-59
2022/09/08 07:57:29;;;;;;;60.45;47.55;;;17.30;99.90;;;;;;5135350;27;20050;-58
2022/09/08 08:00:05;;;;;;;64.75;47.17;;;17.30;99.90;;;;;;5135205;27;20135;-58
2022/09/08 08:02:55;;;;;;;58.60;45.75;;;17.30;99.90;;;;;;5117271;27;20054;-58
2022/09/08 08:05:35;;;;;;;57.95;45.20;;;17.20;99.90;;;;;;5135429;27;20050;-59
2022/09/08 08:08:24;;;;;;;61.42;49.33;;;17.20;99.90;;;;;;5135135;27;20063;-58
2022/09/08 08:11:07;;;;;;;55.75;43.97;;;17.20;99.90;;;;;;5135398;27;20087;-59
2022/09/08 08:13:57;;;;;;;55.90;45.28;;;17.20;99.90;;;;;;5134816;27;20511;-63
2022/09/08 08:16:39;;;;;;;56.35;44.70;;;17.10;99.90;;;;;;5134866;27;20172;-59
2022/09/08 08:19:45;;;;;;;54.20;43.28;;;17.10;99.90;;;;;;5116578;27;20054;-59
2022/09/08 08:22:43;;;;;;;55.78;42.97;;;17.10;99.90;;;;;;5087251;27;20055;-59
2022/09/08 08:25:15;;;;;;;61.58;43.83;;;17.10;99.90;;;;;;5134069;27;20503;-59
2022/09/08 08:28:05;;;;;;;56.85;40.90;;;17.10;99.90;;;;;;5134586;27;20043;-58
2022/09/08 08:30:39;;;;;;;58.75;44.55;;;17.10;99.90;;;;;;5134705;27;20057;-58
2022/09/08 08:33:22;;;;;;;59.70;42.00;;;17.10;99.90;;;;;;5134155;27;20047;-60
2022/09/08 08:35:52;;;;;;;49.05;38.28;;;17.10;99.90;;;;;;5134906;27;20373;-59
2022/09/08 08:38:25;;;;;;;49.13;35.65;;;17.10;99.90;;;;;;5134331;27;20039;-59
2022/09/08 08:40:59;;;;;;;49.30;36.83;;;17.10;99.90;;;;;;5133108;27;20475;-60
2022/09/08 08:43:44;;;;;;;36.90;30.75;;;17.10;99.90;;;;;;5132889;27;20496;-59
2022/09/08 08:46:19;;;;;;;35.08;30.60;;;17.30;99.90;;;;;;5133855;27;20050;-59
2022/09/08 08:48:59;;;;;;;41.10;33.78;;;17.10;99.90;;;;;;5134345;27;20043;-59
2022/09/08 08:51:25;;;;;;;47.58;35.88;;;17.20;99.90;;;;;;5134510;27;20047;-59
2022/09/08 08:54:09;;;;;;;48.05;37.55;;;17.20;99.90;;;;;;5115930;27;20047;-59
2022/09/08 08:56:47;;;;;;;44.78;35.90;;;17.30;99.90;;;;;;5116242;27;20384;-60
2022/09/08 08:59:54;;;;;;;43.97;36.72;;;17.30;99.90;;;;;;5134526;27;20047;-60
2022/09/08 09:02:31;;;;;;;46.67;36.85;;;17.40;99.90;;;;;;5114905;27;20057;-60
2022/09/08 09:05:15;;;;;;;43.58;37.63;;;17.40;99.90;;;;;;5134116;27;20090;-60
2022/09/08 09:08:06;;;;;;;46.13;37.78;;;17.40;99.90;;;;;;5134127;27;20109;-60
2022/09/08 09:10:34;;;;;;;47.67;38.70;;;17.40;99.90;;;;;;5116055;27;20051;-60
2022/09/08 09:13:17;;;;;;;45.17;38.20;;;17.50;99.90;;;;;;5115233;27;20055;-61
2022/09/08 09:16:12;;;;;;;42.65;36.33;;;17.50;99.90;;;;;;5133951;27;20280;-61
2022/09/08 09:18:59;;;;;;;45.55;38.50;;;17.50;99.90;;;;;;5115782;27;20373;-60
2022/09/08 09:21:50;;;;;;;47.28;38.83;;;17.60;99.90;;;;;;5133673;27;20140;-60
2022/09/08 09:24:31;;;;;;;49.50;41.03;;;17.60;99.90;;;;;;5133756;27;20082;-60
2022/09/08 09:26:56;;;;;;;45.85;38.95;;;17.60;99.90;;;;;;5115692;27;20051;-60
2022/09/08 09:29:25;;;;;;;45.72;38.20;;;17.60;99.90;;;;;;5114802;27;20396;-60
2022/09/08 09:32:26;;;;;;;42.97;35.65;;;17.60;99.90;;;;;;5133227;27;20572;-61
2022/09/08 09:34:52;;;;;;;43.22;36.40;;;17.60;99.90;;;;;;5133545;27;20491;-61
2022/09/08 09:37:59;;;;;;;45.75;35.70;;;17.60;99.90;;;;;;5133080;27;20053;-61
2022/09/08 09:41:11;;;;;;;43.72;35.97;;;17.70;99.90;;;;;;5133162;27;20050;-61
2022/09/08 09:43:43;;;;;;;39.05;33.10;;;17.70;99.90;;;;;;5133246;27;20098;-60
2022/09/08 09:46:18;;;;;;;42.25;33.40;;;17.80;99.90;;;;;;5133042;27;20080;-61
2022/09/08 09:48:46;;;;;;;35.83;30.13;;;17.80;99.90;;;;;;5115336;27;20043;-61
2022/09/08 09:51:28;;;;;;;33.53;27.33;;;17.90;99.90;;;;;;5130901;27;20504;-58
2022/09/08 09:54:18;;;;;;;31.00;23.75;;;17.90;99.90;;;;;;5132643;27;20078;-58
2022/09/08 09:57:12;;;;;;;24.45;21.52;;;17.80;99.90;;;;;;5132216;27;20133;-61
2022/09/08 10:00:17;;;;;;;23.92;20.17;;;17.80;99.90;;;;;;5132986;27;20500;-58
2022/09/08 10:03:18;;;;;;;20.87;17.53;;;17.90;99.90;;;;;;5133162;27;20054;-59
2022/09/08 10:06:01;;;;;;;21.45;17.17;;;17.90;99.90;;;;;;5133074;27;20043;-58
2022/09/08 10:09:04;;;;;;;23.73;19.48;;;17.90;99.90;;;;;;5132597;27;20043;-59
2022/09/08 10:12:01;;;;;;;21.05;18.88;;;18.00;99.90;;;;;;5114170;27;20091;-59
2022/09/08 10:14:32;;;;;;;21.65;18.80;;;18.00;99.90;;;;;;5114126;27;20093;-61
2022/09/08 10:17:20;;;;;;;18.95;16.98;;;18.00;99.90;;;;;;5132909;27;20043;-58
2022/09/08 10:20:24;;;;;;;20.38;18.17;;;17.90;99.90;;;;;;5132773;27;20055;-59
2022/09/08 10:23:07;;;;;;;20.23;16.70;;;17.90;99.90;;;;;;5132774;27;20050;-58
2022/09/08 10:25:50;;;;;;;18.52;16.52;;;17.90;99.90;;;;;;5132685;27;20043;-59
2022/09/08 10:28:30;;;;;;;19.42;16.77;;;17.90;99.90;;;;;;5114473;28;20054;-58
2022/09/08 10:31:15;;;;;;;18.38;16.45;;;17.90;99.90;;;;;;5132717;28;20126;-59
2022/09/08 10:33:53;;;;;;;;;;;17.80;99.90;;;;;;5133114;28;20082;-60
2022/09/08 10:36:32;;;;;;;18.98;16.35;;;17.80;99.90;;;;;;5132533;28;19965;-60
2022/09/08 10:39:16;;;;;;;19.38;16.60;;;17.80;99.90;;;;;;5132579;28;20491;-63
2022/09/08 10:42:03;;;;;;;18.42;15.73;;;17.80;99.90;;;;;;5132684;28;20396;-61
2022/09/08 10:44:50;;;;;;;15.23;13.63;;;17.90;99.90;;;;;;5113997;28;20595;-62
2022/09/08 10:47:38;;;;;;;15.02;13.45;;;18.00;99.90;;;;;;5132370;28;20090;-61
2022/09/08 10:50:19;;;;;;;12.70;11.40;;;18.00;99.90;;;;;;5132716;28;20078;-62
2022/09/08 10:52:57;;;;;;;9.10;7.63;;;18.00;99.90;;;;;;5132528;28;20043;-61
2022/09/08 10:55:55;;;;;;;9.70;7.57;;;18.00;99.90;;;;;;5113900;28;20050;-61
2022/09/08 10:58:58;;;;;;;7.85;6.80;;;18.00;99.90;;;;;;5132327;28;20054;-61
2022/09/08 11:01:36;;;;;;;8.13;6.53;;;18.00;99.90;;;;;;5132091;28;20043;-61
2022/09/08 11:04:22;;;;;;;7.65;6.53;;;18.00;99.90;;;;;;5132220;28;20484;-61
2022/09/08 11:07:25;;;;;;;8.27;6.20;;;18.00;99.90;;;;;;5131951;27;20200;-61
2022/09/08 11:09:54;;;;;;;6.97;5.10;;;17.90;99.90;;;;;;5136512;27;20043;-61
2022/09/08 11:12:30;;;;;;;6.32;4.10;;;17.80;99.90;;;;;;5136107;27;20039;-62
2022/09/08 11:15:15;;;;;;;6.45;4.88;;;17.80;99.90;;;;;;5118099;27;20053;-62
2022/09/08 11:17:47;;;;;;;6.45;4.65;;;17.80;99.90;;;;;;5135704;27;20047;-62
2022/09/08 11:20:51;;;;;;;5.72;4.93;;;17.80;99.90;;;;;;5117978;27;20430;-61
2022/09/08 11:23:28;;;;;;;6.70;5.00;;;17.70;99.90;;;;;;5117550;27;20039;-61
2022/09/08 11:26:21;;;;;;;6.88;5.25;;;17.70;99.90;;;;;;5136253;27;20047;-62
2022/09/08 11:29:05;;;;;;;9.55;5.45;;;17.70;99.90;;;;;;5135794;27;20134;-62
2022/09/08 11:31:46;;;;;;;5.80;4.10;;;17.80;99.90;;;;;;5135741;27;20047;-59
2022/09/08 11:34:27;;;;;;;4.55;3.42;;;17.70;99.90;;;;;;5135838;27;20039;-59
2022/09/08 11:37:05;;;;;;;5.35;3.63;;;17.70;99.90;;;;;;5135405;27;20176;-60
2022/09/08 11:39:39;;;;;;;7.88;3.90;;;17.70;99.90;;;;;;5135431;27;20046;-59
2022/09/08 11:42:27;;;;;;;5.95;3.10;;;17.70;99.90;;;;;;5135924;27;20062;-59
2022/09/08 11:45:05;;;;;;;5.45;2.70;;;17.60;99.90;;;;;;5135929;27;20092;-60
2022/09/08 11:47:57;;;;;;;4.55;2.97;;;17.60;99.90;;;;;;5135348;27;20055;-60
2022/09/08 11:50:40;;;;;;;6.25;3.50;;;17.50;99.90;;;;;;5088734;27;20500;-58
2022/09/08 11:53:18;;;;;;;4.30;2.78;;;17.50;99.90;;;;;;5135190;27;20047;-59
2022/09/08 11:56:20;;;;;;;4.13;2.70;;;17.50;99.90;;;;;;5135768;27;20072;-59
2022/09/08 11:59:11;;;;;;;4.57;2.65;;;17.50;99.90;;;;;;5135576;27;20092;-59
2022/09/08 12:01:45;;;;;;;6.07;2.90;;;17.50;99.90;;;;;;5135124;27;20051;-59
2022/09/08 12:04:20;;;;;;;;;;;17.50;99.90;;;;;;5135736;27;20139;-59
2022/09/08 12:07:10;;;;;;;4.68;2.60;;;17.50;99.90;;;;;;5135462;27;20036;-59
2022/09/08 12:09:56;;;;;;;5.15;2.70;;;17.50;99.90;;;;;;5135059;27;20047;-59
2022/09/08 12:12:45;;;;;;;5.15;2.58;;;17.40;99.90;;;;;;5134949;27;20122;-60
2022/09/08 12:15:16;;;;;;;6.18;2.88;;;17.40;99.90;;;;;;5135023;27;20381;-59
2022/09/08 12:18:19;;;;;;;4.38;2.90;;;17.40;99.90;;;;;;5116420;27;20327;-59
2022/09/08 12:21:07;;;;;;;5.78;2.80;;;17.40;99.90;;;;;;5134683;27;20058;-60
2022/09/08 12:23:58;;;;;;;5.25;2.80;;;17.40;99.90;;;;;;5134671;27;20172;-59
2022/09/08 12:26:42;;;;;;;5.97;2.83;;;17.50;99.90;;;;;;5134389;27;20051;-62
2022/09/08 12:29:22;;;;;;;5.13;3.00;;;17.40;99.90;;;;;;5134991;27;20047;-59
2022/09/08 12:31:57;;;;;;;4.00;2.60;;;17.50;99.90;;;;;;5134521;27;20039;-59
2022/09/08 12:34:44;;;;;;;8.18;2.90;;;17.50;99.90;;;;;;5135003;27;20176;-59
2022/09/08 12:37:31;;;;;;;5.72;2.70;;;17.40;99.90;;;;;;5134614;27;20516;-59
2022/09/08 12:40:27;;;;;;;4.80;2.78;;;17.50;99.90;;;;;;5134913;27;20070;-59
2022/09/08 12:43:19;;;;;;;7.10;2.88;;;17.50;99.90;;;;;;5134610;27;20050;-58
2022/09/08 12:46:33;;;;;;;6.45;3.00;;;17.50;99.90;;;;;;5134413;27;20400;-58
2022/09/08 12:49:36;;;;;;;5.38;2.83;;;17.50;99.90;;;;;;5094035;27;20559;-58
2022/09/08 12:52:08;;;;;;;5.88;3.33;;;17.50;99.90;;;;;;5134516;27;20042;-58
2022/09/08 12:55:12;;;;;;;5.05;3.30;;;17.50;99.90;;;;;;5115848;27;20046;-58
2022/09/08 12:57:38;;;;;;;5.63;3.17;;;17.60;99.90;;;;;;5134204;27;20122;-59
2022/09/08 13:00:12;;;;;;;4.85;3.10;;;17.60;99.90;;;;;;5116120;27;20082;-58
2022/09/08 13:03:19;;;;;;;4.93;2.90;;;17.60;99.90;;;;;;5134197;27;20042;-58
2022/09/08 13:06:23;;;;;;;6.28;3.22;;;17.60;99.90;;;;;;5133919;27;20138;-58
2022/09/08 13:09:00;;;;;;;5.03;3.60;;;17.60;99.90;;;;;;5133104;27;20051;-59
2022/09/08 13:11:29;;;;;;;7.35;3.55;;;17.70;99.90;;;;;;5134182;27;20281;-59
2022/09/08 13:14:08;;;;;;;5.35;3.20;;;17.70;99.90;;;;;;5133836;27;20055;-59
2022/09/08 13:16:52;;;;;;;6.25;3.90;;;17.70;99.90;;;;;;5133683;27;20050;-59
2022/09/08 13:19:25;;;;;;;;;;;17.80;99.90;;;;;;5134563;27;20053;-59